Time;durP1;ratioP1;P1;durP2;ratioP2;P2;SDS_P1;SDS_P2;PMS_P1;PMS_P2;Temp;Humidity;BMP_temperature;BMP_pressure;BME280_temperature;BME280_humidity;BME280_pressure;Samples;Min_cycle;Max_cycle;Signal;HPM_P1;HPM_P2
2023/10/09 03:01:14;;;;;;;20.30;3.75;;;17.40;87.40;;;;;;5126103;23;20054;-90
2023/10/09 03:03:46;;;;;;;22.33;3.92;;;17.40;87.40;;;;;;5012268;28;20032;-90
2023/10/09 03:06:13;;;;;;;27.10;5.13;;;17.40;87.30;;;;;;5014528;28;20416;-91
2023/10/09 03:08:42;;;;;;;32.60;5.03;;;17.40;87.30;;;;;;5016405;28;20096;-91
2023/10/09 03:11:13;;;;;;;21.50;4.10;;;17.40;87.30;;;;;;5020876;28;20025;-91
2023/10/09 03:13:42;;;;;;;;;;;17.50;87.30;;;;;;5027032;28;20124;-91
2023/10/09 03:16:14;;;;;;;22.08;4.40;;;17.40;87.20;;;;;;5010301;28;19963;-90
2023/10/09 03:18:40;;;;;;;29.00;4.07;;;17.40;87.20;;;;;;5022493;28;20446;-91
2023/10/09 03:21:06;;;;;;;30.92;4.32;;;17.40;87.20;;;;;;5019743;28;20033;-91
2023/10/09 03:23:34;;;;;;;35.88;4.95;;;17.40;87.10;;;;;;5026338;28;20052;-91
2023/10/09 03:25:59;;;;;;;21.48;4.05;;;17.40;87.10;;;;;;5011488;28;20160;-91
2023/10/09 03:28:25;;;;;;;23.27;3.92;;;17.40;87.10;;;;;;5011710;28;20489;-91
2023/10/09 03:30:50;;;;;;;22.85;3.58;;;17.40;87.20;;;;;;5012860;28;20478;-91
2023/10/09 03:33:17;;;;;;;34.47;4.50;;;17.40;87.10;;;;;;5024281;28;20021;-91
2023/10/09 03:35:43;;;;;;;22.38;3.40;;;17.40;87.10;;;;;;5027365;28;20473;-91
2023/10/09 03:38:12;;;;;;;13.02;3.83;;;17.40;87.10;;;;;;5027510;28;20033;-91
2023/10/09 03:40:49;;;;;;;20.88;5.30;;;17.40;87.00;;;;;;5025106;28;20057;-91
2023/10/09 03:43:15;;;;;;;21.17;4.03;;;17.40;87.00;;;;;;5013004;28;20405;-91
2023/10/09 03:45:54;;;;;;;25.70;4.57;;;17.40;87.00;;;;;;5025850;28;20030;-91
2023/10/09 03:48:26;;;;;;;19.38;4.13;;;17.40;87.00;;;;;;5027308;28;20466;-90
2023/10/09 03:51:08;;;;;;;21.92;4.15;;;17.40;86.90;;;;;;5021942;28;20462;-91
2023/10/09 03:53:39;;;;;;;15.77;3.70;;;17.40;86.90;;;;;;5007681;28;20030;-91
2023/10/09 03:56:11;;;;;;;20.75;4.03;;;17.40;87.00;;;;;;5012975;28;20127;-91
2023/10/09 03:58:51;;;;;;;21.25;3.97;;;17.40;86.90;;;;;;5026748;28;20033;-91
2023/10/09 04:01:28;;;;;;;34.25;3.95;;;17.40;86.90;;;;;;5011838;28;20089;-91
2023/10/09 04:04:00;;;;;;;21.40;3.42;;;17.30;86.80;;;;;;5022023;28;20679;-91
2023/10/09 04:06:30;;;;;;;19.13;3.45;;;17.40;86.90;;;;;;5002642;28;20022;-91
2023/10/09 04:08:58;;;;;;;25.15;4.03;;;17.40;86.90;;;;;;5008016;28;20030;-91
2023/10/09 04:11:24;;;;;;;27.77;4.30;;;17.30;86.70;;;;;;5027939;28;20032;-91
2023/10/09 04:13:52;;;;;;;25.58;4.75;;;17.30;86.80;;;;;;5031940;28;20029;-91
2023/10/09 04:18:59;;;;;;;28.85;4.00;;;17.40;86.80;;;;;;5024482;28;20506;-91
2023/10/09 04:21:35;;;;;;;26.70;3.90;;;17.40;86.70;;;;;;5014906;28;20029;-91
2023/10/09 04:26:46;;;;;;;23.98;4.20;;;17.40;86.70;;;;;;5023924;28;20059;-91
2023/10/09 04:29:26;;;;;;;14.93;3.22;;;17.40;86.70;;;;;;5022346;28;20044;-91
2023/10/09 04:32:00;;;;;;;18.30;3.95;;;17.40;86.70;;;;;;5026103;28;20030;-91
2023/10/09 04:34:48;;;;;;;28.30;4.45;;;17.40;86.60;;;;;;5028158;28;20033;-91
2023/10/09 04:42:36;;;;;;;17.48;3.80;;;17.30;86.50;;;;;;5026652;28;20505;-91
2023/10/09 04:47:38;;;;;;;18.67;3.45;;;17.30;86.40;;;;;;5027288;28;20041;-92
2023/10/09 04:50:08;;;;;;;21.95;3.58;;;17.40;86.50;;;;;;5024328;28;20596;-91
2023/10/09 04:57:38;;;;;;;38.47;3.75;;;17.40;86.50;;;;;;5037919;28;20488;-91
2023/10/09 05:00:22;;;;;;;16.45;3.22;;;17.40;86.50;;;;;;5008086;28;20407;-91
2023/10/09 05:02:54;;;;;;;18.15;3.85;;;17.30;86.40;;;;;;5008242;28;20042;-92
2023/10/09 05:08:21;;;;;;;11.25;3.55;;;17.40;86.50;;;;;;5028719;28;20039;-91
2023/10/09 05:16:25;;;;;;;16.07;3.90;;;17.40;86.30;;;;;;5025029;28;20064;-91
2023/10/09 05:19:05;;;;;;;19.63;3.45;;;17.30;86.20;;;;;;5031867;28;20071;-91
2023/10/09 05:32:15;;;;;;;23.92;3.85;;;17.30;86.10;;;;;;5025195;28;20033;-90
2023/10/09 05:37:32;;;;;;;26.50;4.18;;;17.30;86.20;;;;;;5025539;28;20459;-91
2023/10/09 05:42:43;;;;;;;41.58;5.22;;;17.40;86.20;;;;;;5023426;28;20536;-91
2023/10/09 05:47:34;;;;;;;41.42;5.25;;;17.40;86.20;;;;;;5029599;28;20030;-88
2023/10/09 05:55:20;;;;;;;14.70;4.15;;;17.10;82.00;;;;;;5025847;28;20112;-89
2023/10/09 06:14:12;;;;;;;21.45;4.57;;;16.80;80.10;;;;;;5024993;28;20045;-89
2023/10/09 06:19:12;;;;;;;25.73;3.50;;;16.80;79.80;;;;;;5021533;28;20021;-89
2023/10/09 06:24:25;;;;;;;17.95;3.75;;;16.70;79.70;;;;;;5026098;28;20132;-89
2023/10/09 06:27:12;;;;;;;16.52;3.65;;;16.70;80.00;;;;;;5023920;28;20034;-89
2023/10/09 06:35:15;;;;;;;24.25;3.55;;;16.70;79.90;;;;;;5028848;28;20026;-89
2023/10/09 06:43:09;;;;;;;15.68;3.60;;;16.70;80.40;;;;;;5023562;28;20072;-89
2023/10/09 06:45:43;;;;;;;11.95;3.63;;;16.70;80.30;;;;;;5002510;28;20049;-88
2023/10/09 06:48:40;;;;;;;23.38;3.90;;;16.70;80.50;;;;;;5028324;28;20048;-89
2023/10/09 06:51:03;;;;;;;24.67;4.07;;;16.70;80.70;;;;;;5022471;28;20076;-88
2023/10/09 06:53:58;;;;;;;17.67;4.13;;;16.70;80.80;;;;;;5022282;28;20068;-89
2023/10/09 06:58:59;;;;;;;28.83;4.00;;;16.80;81.20;;;;;;5023837;28;20117;-89
2023/10/09 07:03:59;;;;;;;15.13;4.60;;;16.70;81.60;;;;;;5019445;28;20022;-88
2023/10/09 07:24:49;;;;;;;11.18;2.92;;;16.70;82.40;;;;;;5039998;28;20465;-90
2023/10/09 07:27:43;;;;;;;21.17;4.20;;;16.80;82.70;;;;;;5011115;28;20018;-90
2023/10/09 07:30:35;;;;;;;;;;;16.80;82.90;;;;;;5027301;28;20058;-89
2023/10/09 07:32:54;;;;;;;12.93;3.72;;;16.70;82.80;;;;;;5025684;28;19916;-86
2023/10/09 07:35:46;;;;;;;16.98;4.55;;;16.80;83.00;;;;;;5012124;28;20040;-88
2023/10/09 07:38:09;;;;;;;15.80;3.03;;;16.80;83.00;;;;;;5018156;28;20036;-88
2023/10/09 07:40:55;;;;;;;23.83;4.00;;;16.90;82.70;;;;;;5025562;28;20500;-88
2023/10/09 07:44:18;;;;;;;26.33;3.63;;;16.90;82.50;;;;;;5019619;28;20038;-87
2023/10/09 07:46:51;;;;;;;17.67;3.47;;;17.00;82.40;;;;;;5028581;28;20036;-88
2023/10/09 07:49:24;;;;;;;13.25;3.20;;;17.00;82.40;;;;;;5022930;28;20033;-87
2023/10/09 07:51:52;;;;;;;17.98;3.05;;;17.00;82.40;;;;;;5021233;28;20056;-87
2023/10/09 07:54:31;;;;;;;15.45;3.33;;;17.00;82.40;;;;;;5011336;28;20025;-87
2023/10/09 07:57:15;;;;;;;18.98;4.25;;;17.10;82.50;;;;;;5028082;28;20034;-87
2023/10/09 07:59:54;;;;;;;21.13;4.03;;;17.10;82.50;;;;;;5030715;28;20044;-87
2023/10/09 08:02:31;;;;;;;15.15;3.90;;;17.10;82.50;;;;;;5006343;28;20037;-87
2023/10/09 08:05:04;;;;;;;29.00;4.47;;;17.10;82.60;;;;;;5005283;28;20491;-88
2023/10/09 08:07:36;;;;;;;14.98;3.80;;;17.10;82.60;;;;;;5011879;28;20470;-87
2023/10/09 08:18:18;;;;;;;16.05;3.60;;;17.10;83.50;;;;;;5027708;28;20030;-88
2023/10/09 08:23:47;;;;;;;19.20;3.30;;;17.10;82.80;;;;;;5018685;28;20504;-88
2023/10/09 08:26:14;;;;;;;20.67;3.65;;;17.10;82.90;;;;;;5006689;28;20029;-92
2023/10/09 08:28:45;;;;;;;15.52;3.63;;;17.10;83.40;;;;;;5028631;28;20112;-93
2023/10/09 08:34:03;;;;;;;15.68;3.92;;;17.10;85.80;;;;;;5027847;28;20075;-91
2023/10/09 08:36:36;;;;;;;22.35;3.55;;;17.60;86.00;;;;;;5020611;28;20429;-92
2023/10/09 08:39:15;;;;;;;24.20;3.67;;;17.10;86.00;;;;;;5017016;28;20037;-91
2023/10/09 08:41:40;;;;;;;19.88;4.20;;;17.10;86.40;;;;;;5025931;28;20040;-92
2023/10/09 08:44:07;;;;;;;16.75;3.95;;;17.10;86.60;;;;;;5025275;28;20022;-91
2023/10/09 08:46:33;;;;;;;26.20;3.55;;;17.10;87.20;;;;;;5031408;28;20104;-92
2023/10/09 08:48:59;;;;;;;21.08;4.05;;;17.10;87.30;;;;;;5028393;28;20024;-88
2023/10/09 08:51:27;;;;;;;26.77;4.35;;;17.00;87.60;;;;;;5013791;28;20105;-92
2023/10/09 08:53:54;;;;;;;18.98;4.28;;;17.00;87.90;;;;;;5029383;28;20071;-93
2023/10/09 08:56:23;;;;;;;18.25;3.85;;;17.00;87.90;;;;;;5026426;28;20028;-91
2023/10/09 08:58:52;;;;;;;16.75;3.60;;;17.10;88.10;;;;;;5013715;28;20381;-92
2023/10/09 09:01:21;;;;;;;15.68;4.22;;;17.00;88.30;;;;;;5009748;28;20378;-92
2023/10/09 09:03:50;;;;;;;26.35;4.78;;;17.00;88.30;;;;;;5018964;28;20026;-92
2023/10/09 09:06:19;;;;;;;29.25;4.38;;;17.10;88.50;;;;;;5014502;28;20528;-92
2023/10/09 09:08:45;;;;;;;15.38;4.20;;;17.10;88.70;;;;;;5016375;28;20060;-92
2023/10/09 09:11:22;;;;;;;25.10;3.65;;;17.10;88.90;;;;;;5028506;28;20025;-91
2023/10/09 09:14:04;;;;;;;25.02;4.25;;;17.00;88.90;;;;;;5020309;28;20032;-93
2023/10/09 09:16:31;;;;;;;22.35;4.25;;;17.10;89.90;;;;;;5024416;28;20448;-93
2023/10/09 09:19:17;;;;;;;15.20;3.88;;;17.10;89.30;;;;;;5026799;28;20470;-91
2023/10/09 09:21:49;;;;;;;25.98;4.80;;;17.10;89.70;;;;;;5012055;28;20124;-92
2023/10/09 09:24:30;;;;;;;15.68;4.57;;;17.10;89.90;;;;;;5022761;28;20022;-93
2023/10/09 09:27:00;;;;;;;26.00;4.50;;;17.10;90.00;;;;;;5025686;28;20063;-93
2023/10/09 09:29:37;;;;;;;23.80;3.40;;;17.10;90.00;;;;;;5012473;28;20540;-91
2023/10/09 09:32:15;;;;;;;23.73;4.88;;;17.90;90.20;;;;;;5019430;28;20025;-92
2023/10/09 09:34:46;;;;;;;8.77;3.05;;;17.10;90.20;;;;;;5012406;28;20059;-93
2023/10/09 09:37:31;;;;;;;30.30;4.07;;;17.10;90.20;;;;;;5006864;28;20771;-94
2023/10/09 09:40:14;;;;;;;15.55;3.72;;;17.10;90.10;;;;;;5033536;28;20029;-92
2023/10/09 09:42:45;;;;;;;17.02;3.58;;;17.10;90.00;;;;;;5022057;28;20045;-93
2023/10/09 09:45:12;;;;;;;9.90;2.50;;;17.10;89.90;;;;;;5025742;28;20466;-92
2023/10/09 09:47:38;;;;;;;24.20;3.88;;;17.10;90.00;;;;;;5036831;28;20486;-93
2023/10/09 09:50:13;;;;;;;20.80;3.13;;;17.20;90.10;;;;;;5034621;28;20022;-92
2023/10/09 09:52:39;;;;;;;16.23;3.22;;;17.20;89.80;;;;;;5035503;28;20029;-93
2023/10/09 09:55:22;;;;;;;19.95;3.38;;;17.10;89.60;;;;;;5014025;28;20182;-93
2023/10/09 09:57:51;;;;;;;14.30;3.03;;;17.20;89.60;;;;;;5011049;28;20567;-94
2023/10/09 10:03:08;;;;;;;13.00;3.83;;;17.20;89.70;;;;;;5019258;28;20342;-94
2023/10/09 10:05:35;;;;;;;17.38;3.60;;;17.20;89.40;;;;;;5023359;28;20041;-93
2023/10/09 10:08:04;;;;;;;11.88;3.05;;;17.30;89.60;;;;;;5025359;28;20040;-93
2023/10/09 10:11:13;;;;;;;10.98;3.05;;;17.30;89.50;;;;;;5012834;28;20026;-94
2023/10/09 10:13:42;;;;;;;14.20;3.42;;;17.20;89.50;;;;;;5013639;28;20025;-93
2023/10/09 10:21:49;;;;;;;19.33;3.45;;;17.30;89.40;;;;;;5034812;28;20037;-93
2023/10/09 10:24:51;;;;;;;11.93;3.65;;;17.30;89.50;;;;;;5019514;28;20389;-91
2023/10/09 10:30:13;;;;;;;16.02;2.97;;;17.30;90.00;;;;;;5025077;28;20248;-92
2023/10/09 10:32:51;;;;;;;18.23;3.40;;;17.30;90.00;;;;;;5033704;28;20096;-94
2023/10/09 10:35:20;;;;;;;15.52;3.30;;;17.40;89.90;;;;;;5012624;28;20029;-93
2023/10/09 10:38:00;;;;;;;14.23;3.75;;;17.30;90.00;;;;;;5036664;28;20021;-93
2023/10/09 10:40:40;;;;;;;17.38;3.83;;;17.30;90.20;;;;;;5018719;28;20037;-93
2023/10/09 10:43:09;;;;;;;;;;;17.40;90.90;;;;;;5034719;28;20040;-92
2023/10/09 10:45:43;;;;;;;10.88;3.30;;;17.50;90.60;;;;;;5011875;28;19956;-92
2023/10/09 10:48:37;;;;;;;17.92;4.40;;;17.50;90.40;;;;;;5013461;28;20032;-93
2023/10/09 10:51:01;;;;;;;19.80;3.78;;;17.50;90.40;;;;;;5030139;28;20123;-92
2023/10/09 10:53:34;;;;;;;19.83;5.22;;;17.50;90.50;;;;;;5013624;28;20022;-92
2023/10/09 10:58:38;;;;;;;17.30;3.55;;;17.50;90.60;;;;;;5026343;28;20421;-93
2023/10/09 11:01:16;;;;;;;12.30;3.20;;;17.50;90.90;;;;;;5028920;28;20143;-93
2023/10/09 11:06:36;;;;;;;23.38;3.88;;;17.50;90.90;;;;;;5030183;28;20029;-90
2023/10/09 11:09:09;;;;;;;20.40;3.83;;;17.50;91.00;;;;;;5023178;28;20565;-93
2023/10/09 11:11:46;;;;;;;20.85;3.63;;;17.50;90.90;;;;;;5012084;28;20112;-91
2023/10/09 11:14:23;;;;;;;15.93;3.67;;;17.50;91.00;;;;;;5024312;28;20033;-94
2023/10/09 11:16:49;;;;;;;23.95;3.97;;;17.50;91.00;;;;;;5017558;28;20176;-92
2023/10/09 11:19:31;;;;;;;21.95;3.97;;;17.50;91.00;;;;;;5019615;28;20028;-92
2023/10/09 11:22:50;;;;;;;16.30;3.58;;;17.50;91.10;;;;;;5017494;28;20136;-93
2023/10/09 11:25:00;;;;;;;11.25;3.33;;;17.50;91.20;;;;;;5032737;28;20128;-92
2023/10/09 11:27:32;;;;;;;18.35;4.90;;;17.50;91.30;;;;;;5031171;28;20029;-92
2023/10/09 11:30:05;;;;;;;20.58;3.75;;;17.60;91.40;;;;;;5025569;28;20037;-93
2023/10/09 11:32:32;;;;;;;18.02;3.92;;;17.60;91.60;;;;;;5028185;28;20033;-92
2023/10/09 11:35:27;;;;;;;19.75;4.35;;;17.60;91.60;;;;;;5031188;28;20080;-93
2023/10/09 11:37:56;;;;;;;14.57;4.13;;;17.60;91.50;;;;;;5033203;28;20108;-93
2023/10/09 11:43:54;;;;;;;27.83;4.85;;;17.60;91.70;;;;;;5003749;28;20038;-93
2023/10/09 11:49:26;;;;;;;18.65;4.15;;;17.70;92.00;;;;;;5002476;28;20033;-91
2023/10/09 11:52:31;;;;;;;17.25;3.97;;;17.70;92.40;;;;;;4987329;28;20041;-93
2023/10/09 11:54:49;;;;;;;10.60;4.15;;;17.70;92.20;;;;;;4997682;28;20018;-94
2023/10/09 11:57:16;;;;;;;17.42;4.22;;;17.80;92.40;;;;;;5000472;28;20124;-93
2023/10/09 11:59:43;;;;;;;12.55;2.72;;;17.80;92.50;;;;;;4979896;28;20519;-92
2023/10/09 12:02:12;;;;;;;22.10;5.15;;;17.80;92.70;;;;;;5000426;28;20169;-93
2023/10/09 12:04:41;;;;;;;13.25;3.80;;;17.80;92.60;;;;;;4984427;28;20487;-93
2023/10/09 12:07:10;;;;;;;17.27;3.93;;;17.70;92.90;;;;;;4998208;28;20029;-93
2023/10/09 12:09:39;;;;;;;27.52;4.32;;;17.80;92.40;;;;;;4979650;28;20018;-91
2023/10/09 12:12:09;;;;;;;18.60;3.50;;;17.70;92.30;;;;;;5000230;28;20035;-94
2023/10/09 12:14:37;;;;;;;33.08;3.92;;;17.80;92.30;;;;;;4986009;28;20036;-94
2023/10/09 12:17:07;;;;;;;20.33;3.67;;;17.80;92.20;;;;;;4986420;28;20068;-93
2023/10/09 12:19:39;;;;;;;15.23;3.95;;;17.70;92.20;;;;;;5015181;28;20022;-93
2023/10/09 12:22:10;;;;;;;19.45;4.10;;;17.80;92.40;;;;;;5011675;28;20501;-93
2023/10/09 12:24:37;;;;;;;20.38;3.70;;;17.90;92.40;;;;;;5025537;28;20038;-93
2023/10/09 12:27:09;;;;;;;21.83;4.45;;;17.90;92.40;;;;;;5027625;28;20064;-93
2023/10/09 12:29:35;;;;;;;21.75;4.05;;;17.90;92.00;;;;;;5020909;28;20044;-94
2023/10/09 12:32:02;;;;;;;12.45;3.42;;;17.90;92.30;;;;;;5026247;28;20370;-93
2023/10/09 12:34:28;;;;;;;22.58;4.75;;;17.90;92.30;;;;;;5010381;28;20033;-91
2023/10/09 12:36:55;;;;;;;18.10;3.83;;;17.90;92.20;;;;;;5009528;28;20022;-91
2023/10/09 12:39:23;;;;;;;28.98;5.00;;;17.80;92.20;;;;;;5025287;28;20108;-93
2023/10/09 12:41:53;;;;;;;25.92;5.10;;;17.90;92.20;;;;;;5009343;28;20037;-93
2023/10/09 12:44:19;;;;;;;26.95;6.55;;;18.00;91.90;;;;;;5019478;28;20030;-94
2023/10/09 12:46:51;;;;;;;26.60;4.53;;;18.00;91.80;;;;;;5011405;28;20037;-93
2023/10/09 12:49:19;;;;;;;19.38;5.35;;;17.90;91.70;;;;;;5014229;28;20047;-88
2023/10/09 12:51:45;;;;;;;18.30;4.80;;;17.90;91.30;;;;;;5007779;28;20041;-94
2023/10/09 12:54:13;;;;;;;21.60;5.13;;;17.90;91.50;;;;;;5022104;28;20056;-93
2023/10/09 12:56:38;;;;;;;27.45;4.43;;;17.90;91.70;;;;;;5029110;28;20032;-93
2023/10/09 12:59:05;;;;;;;18.23;4.55;;;17.90;92.00;;;;;;5004555;28;20026;-92
2023/10/09 13:01:42;;;;;;;20.35;5.20;;;17.90;92.20;;;;;;5027356;28;20038;-93
2023/10/09 13:04:11;;;;;;;17.65;3.47;;;17.90;92.90;;;;;;5001085;28;20037;-92
2023/10/09 13:06:43;;;;;;;22.25;3.97;;;17.80;92.90;;;;;;5014426;28;20033;-93
2023/10/09 13:09:13;;;;;;;20.30;5.00;;;17.80;93.00;;;;;;5011451;28;20068;-93
2023/10/09 13:11:42;;;;;;;22.35;4.38;;;17.80;93.40;;;;;;5016615;28;20045;-92
2023/10/09 13:14:16;;;;;;;22.60;4.53;;;17.90;93.50;;;;;;5028973;28;20072;-93
2023/10/09 13:16:47;;;;;;;21.27;4.53;;;17.90;93.90;;;;;;5024615;28;20120;-93
2023/10/09 13:19:12;;;;;;;;;;;17.90;94.00;;;;;;5008044;28;20036;-91
2023/10/09 13:21:43;;;;;;;18.25;3.97;;;17.90;94.00;;;;;;5011401;28;19918;-93
2023/10/09 13:24:13;;;;;;;17.42;5.25;;;17.90;93.90;;;;;;5030252;28;20108;-94
2023/10/09 13:26:40;;;;;;;24.90;3.40;;;17.90;94.10;;;;;;5013773;28;20069;-93
2023/10/09 13:29:09;;;;;;;24.63;4.20;;;17.90;94.20;;;;;;5029931;28;20028;-90
2023/10/09 13:31:37;;;;;;;20.70;4.85;;;18.00;94.00;;;;;;5029160;28;20036;-93
2023/10/09 13:34:06;;;;;;;25.67;5.28;;;17.90;94.20;;;;;;5037973;28;20087;-92
2023/10/09 13:36:33;;;;;;;19.15;3.58;;;17.90;94.20;;;;;;5015800;28;20095;-93
2023/10/09 13:42:01;;;;;;;21.48;5.32;;;17.90;94.20;;;;;;5034458;28;20076;-91
2023/10/09 13:44:31;;;;;;;23.15;4.60;;;17.90;94.30;;;;;;5024163;28;20033;-93
2023/10/09 13:47:04;;;;;;;16.70;4.78;;;17.80;94.40;;;;;;5010972;28;20023;-93
2023/10/09 13:49:30;;;;;;;11.15;3.63;;;17.90;94.30;;;;;;5012637;28;20048;-93
2023/10/09 13:52:01;;;;;;;20.67;3.90;;;17.90;94.30;;;;;;5034576;28;20461;-92
2023/10/09 13:56:58;;;;;;;16.65;4.90;;;17.80;94.10;;;;;;5039198;28;20033;-93
2023/10/09 13:59:27;;;;;;;19.67;4.25;;;17.90;94.10;;;;;;5015633;28;20071;-93
2023/10/09 14:01:54;;;;;;;19.05;4.20;;;17.90;94.00;;;;;;5005958;28;20041;-93
2023/10/09 14:04:21;;;;;;;18.60;4.07;;;17.90;94.10;;;;;;5002376;28;20033;-92
2023/10/09 14:06:47;;;;;;;28.05;4.47;;;17.90;94.00;;;;;;5014185;28;20033;-93
2023/10/09 14:09:27;;;;;;;18.13;4.38;;;17.90;94.00;;;;;;5013932;28;20056;-93
2023/10/09 14:12:07;;;;;;;20.88;3.92;;;18.00;94.00;;;;;;4986627;28;20066;-93
2023/10/09 14:14:49;;;;;;;12.27;3.90;;;17.90;94.00;;;;;;5002334;28;20048;-93
2023/10/09 14:17:23;;;;;;;13.57;3.83;;;17.90;94.30;;;;;;5002617;28;20558;-93
2023/10/09 14:19:51;;;;;;;16.13;3.92;;;18.10;94.30;;;;;;4993273;28;20029;-94
2023/10/09 14:22:18;;;;;;;10.65;3.45;;;18.10;94.30;;;;;;5004279;28;20034;-94
2023/10/09 14:24:55;;;;;;;11.70;3.70;;;18.10;94.20;;;;;;5005590;28;20640;-93
2023/10/09 14:27:23;;;;;;;16.13;4.35;;;18.10;94.10;;;;;;5002520;28;20030;-91
2023/10/09 14:29:49;;;;;;;17.75;4.20;;;18.00;94.10;;;;;;5011547;28;20023;-93
2023/10/09 14:32:16;;;;;;;19.20;3.45;;;18.00;94.30;;;;;;5017627;28;20572;-91
2023/10/09 14:34:46;;;;;;;17.40;4.22;;;18.10;94.20;;;;;;4999763;28;20037;-94
2023/10/09 14:37:12;;;;;;;15.40;3.42;;;18.10;94.10;;;;;;4992189;28;20057;-93
2023/10/09 14:39:39;;;;;;;22.63;3.88;;;17.80;94.40;;;;;;5004260;28;20022;-94
2023/10/09 14:42:11;;;;;;;24.70;4.18;;;18.10;94.20;;;;;;5003857;28;20041;-94
2023/10/09 14:44:37;;;;;;;20.98;3.28;;;18.00;94.30;;;;;;5001990;28;20037;-94
2023/10/09 14:47:07;;;;;;;16.63;3.58;;;18.00;94.10;;;;;;5000030;28;20497;-94
2023/10/09 14:50:08;;;;;;;26.38;4.00;;;18.00;94.10;;;;;;5005583;28;20107;-93
2023/10/09 14:52:27;;;;;;;15.48;3.83;;;18.10;94.10;;;;;;5007576;28;20034;-94
2023/10/09 14:54:53;;;;;;;15.55;4.07;;;18.10;94.30;;;;;;4990192;28;20462;-94
2023/10/09 14:57:21;;;;;;;16.50;3.95;;;18.10;94.10;;;;;;5006816;28;20110;-93
2023/10/09 14:59:49;;;;;;;27.38;3.85;;;18.10;94.10;;;;;;5007621;28;20037;-94
2023/10/09 15:02:15;;;;;;;14.82;3.60;;;18.10;94.10;;;;;;5016206;28;20065;-90
2023/10/09 15:04:41;;;;;;;21.52;4.60;;;18.10;94.10;;;;;;5023494;28;20194;-92
2023/10/09 15:07:06;;;;;;;17.20;3.35;;;18.10;94.10;;;;;;5006100;28;20057;-93
2023/10/09 15:09:36;;;;;;;26.75;4.47;;;18.10;94.10;;;;;;5023722;28;20026;-93
2023/10/09 15:12:01;;;;;;;20.10;3.45;;;18.00;94.10;;;;;;5011196;28;20037;-94
2023/10/09 15:14:27;;;;;;;26.80;4.97;;;18.00;94.20;;;;;;5011472;28;20022;-93
2023/10/09 15:16:52;;;;;;;13.95;3.33;;;18.00;94.20;;;;;;5028301;28;20026;-92
2023/10/09 15:19:18;;;;;;;20.23;4.00;;;18.00;94.20;;;;;;5005921;28;20026;-94
2023/10/09 15:21:44;;;;;;;14.38;3.75;;;18.00;94.30;;;;;;5026426;28;20113;-94
2023/10/09 15:24:15;;;;;;;33.03;4.03;;;18.00;94.40;;;;;;5012290;28;20108;-94
2023/10/09 15:26:51;;;;;;;19.60;4.07;;;18.00;94.40;;;;;;5024056;28;20034;-93
2023/10/09 15:29:19;;;;;;;20.35;4.00;;;18.00;94.40;;;;;;5024917;28;20033;-94
2023/10/09 15:31:46;;;;;;;30.73;5.00;;;18.00;94.50;;;;;;5021066;28;20394;-94
2023/10/09 15:34:12;;;;;;;13.25;3.50;;;18.00;94.50;;;;;;5027416;28;20482;-94
2023/10/09 15:36:39;;;;;;;22.17;4.90;;;18.00;94.50;;;;;;5028578;28;20104;-93
2023/10/09 15:39:07;;;;;;;19.08;3.95;;;17.90;94.60;;;;;;5007523;28;20100;-93
2023/10/09 15:41:39;;;;;;;19.73;4.63;;;18.00;94.70;;;;;;5023815;28;20060;-94
2023/10/09 15:44:05;;;;;;;15.85;3.88;;;18.00;94.60;;;;;;5010735;28;20029;-93
2023/10/09 15:46:35;;;;;;;23.85;3.85;;;17.90;94.60;;;;;;5028247;28;20029;-93
2023/10/09 15:49:01;;;;;;;19.50;4.78;;;17.90;94.60;;;;;;5029228;28;20493;-93
2023/10/09 15:51:30;;;;;;;25.23;6.43;;;17.90;94.70;;;;;;5010313;28;20026;-91
2023/10/09 15:53:56;;;;;;;17.95;3.83;;;17.90;94.70;;;;;;5021856;28;20036;-92
2023/10/09 15:56:22;;;;;;;21.25;5.03;;;17.90;94.70;;;;;;5026246;28;20568;-93
2023/10/09 15:58:48;;;;;;;14.90;3.75;;;17.90;94.70;;;;;;5006308;28;20437;-93
2023/10/09 16:01:15;;;;;;;23.48;4.72;;;17.90;94.70;;;;;;5026287;28;20034;-93
2023/10/09 16:03:47;;;;;;;29.65;4.82;;;17.90;94.80;;;;;;5027356;28;20026;-93
2023/10/09 16:06:12;;;;;;;23.02;5.82;;;17.90;95.10;;;;;;5014218;28;20033;-93
2023/10/09 16:08:41;;;;;;;35.13;4.75;;;17.90;94.80;;;;;;5026477;28;20083;-92
2023/10/09 16:11:07;;;;;;;22.98;4.45;;;17.90;94.80;;;;;;5014892;28;20021;-90
2023/10/09 16:13:34;;;;;;;34.30;7.80;;;17.90;94.80;;;;;;5026239;28;20096;-93
2023/10/09 16:16:01;;;;;;;28.48;7.25;;;17.90;94.80;;;;;;5013327;28;20040;-93
2023/10/09 16:18:29;;;;;;;25.90;6.18;;;17.90;94.80;;;;;;5027587;28;20156;-94
2023/10/09 16:20:55;;;;;;;17.92;3.58;;;17.90;94.80;;;;;;5026630;28;20145;-93
2023/10/09 16:23:22;;;;;;;30.48;4.35;;;17.90;94.90;;;;;;5029546;28;20169;-92
2023/10/09 16:25:48;;;;;;;15.45;3.97;;;17.90;94.90;;;;;;5022224;28;20109;-93
2023/10/09 16:28:15;;;;;;;15.38;4.47;;;17.80;94.90;;;;;;5015109;28;20032;-93
2023/10/09 16:30:42;;;;;;;21.63;3.88;;;17.80;94.90;;;;;;5010393;28;20033;-92
2023/10/09 16:33:08;;;;;;;20.23;3.38;;;17.80;94.90;;;;;;5016257;28;20532;-93
2023/10/09 16:35:37;;;;;;;20.05;4.45;;;17.90;94.90;;;;;;5022988;28;20029;-93
2023/10/09 16:38:05;;;;;;;17.70;4.22;;;17.80;94.80;;;;;;5020028;28;20108;-93
2023/10/09 16:40:34;;;;;;;26.85;4.03;;;17.80;94.80;;;;;;5017838;28;20029;-93
2023/10/09 16:43:01;;;;;;;17.67;3.90;;;17.80;94.70;;;;;;5028476;28;20073;-93
2023/10/09 16:45:26;;;;;;;27.60;3.83;;;17.80;94.70;;;;;;5028614;28;20075;-93
2023/10/09 16:47:54;;;;;;;17.67;4.50;;;17.80;94.70;;;;;;5031036;28;20488;-93
2023/10/09 16:50:25;;;;;;;20.42;3.70;;;17.80;94.70;;;;;;5021305;28;20026;-93
2023/10/09 16:52:51;;;;;;;22.13;4.30;;;17.80;94.70;;;;;;5027905;28;20083;-93
2023/10/09 16:55:19;;;;;;;24.23;3.80;;;17.80;94.70;;;;;;5013518;28;20018;-93
2023/10/09 16:57:46;;;;;;;18.25;4.35;;;17.80;94.60;;;;;;5026881;28;20041;-90
2023/10/09 17:00:28;;;;;;;17.63;4.43;;;17.80;94.60;;;;;;5019626;28;20374;-90
2023/10/09 17:02:54;;;;;;;24.63;4.32;;;17.70;94.60;;;;;;5020371;28;20123;-90
2023/10/09 17:05:29;;;;;;;23.30;3.97;;;17.70;94.50;;;;;;5021727;28;20018;-89
2023/10/09 17:07:55;;;;;;;12.15;3.58;;;17.70;94.40;;;;;;5025929;28;20021;-90
2023/10/09 17:10:25;;;;;;;17.60;4.57;;;17.70;94.40;;;;;;5029817;28;20017;-90
2023/10/09 17:12:53;;;;;;;12.75;3.60;;;17.70;94.40;;;;;;5027550;28;20033;-90
2023/10/09 17:15:19;;;;;;;18.42;3.72;;;17.70;94.30;;;;;;5015769;28;20069;-90
2023/10/09 17:17:49;;;;;;;28.70;4.40;;;17.70;94.30;;;;;;5028997;28;20040;-90
2023/10/09 17:20:21;;;;;;;17.52;4.93;;;17.70;94.20;;;;;;5004883;28;20029;-90
2023/10/09 17:22:50;;;;;;;20.08;5.07;;;17.70;94.20;;;;;;5021752;28;20039;-90
2023/10/09 17:25:19;;;;;;;27.50;4.45;;;17.70;94.20;;;;;;5025347;28;20067;-90
2023/10/09 17:27:48;;;;;;;19.83;4.72;;;17.70;94.30;;;;;;5016537;28;20025;-89
2023/10/09 17:30:17;;;;;;;13.37;4.47;;;17.70;94.10;;;;;;5015352;28;20421;-90
2023/10/09 17:32:47;;;;;;;34.30;5.38;;;17.60;94.10;;;;;;5031659;28;20308;-90
2023/10/09 17:35:14;;;;;;;11.57;4.20;;;17.70;94.10;;;;;;5012508;28;20048;-89
2023/10/09 17:37:41;;;;;;;20.75;4.25;;;17.70;94.10;;;;;;5024954;28;20038;-90
2023/10/09 17:40:09;;;;;;;22.98;5.05;;;17.70;94.00;;;;;;5014655;28;20026;-89
2023/10/09 17:42:35;;;;;;;26.20;5.20;;;17.70;94.00;;;;;;5023006;28;20669;-90
2023/10/09 17:45:05;;;;;;;26.67;5.30;;;17.70;94.00;;;;;;5029691;28;20112;-90
2023/10/09 17:47:35;;;;;;;14.77;4.03;;;17.70;93.90;;;;;;5015411;28;20056;-90
2023/10/09 17:50:11;;;;;;;15.10;4.40;;;17.70;93.90;;;;;;5022752;28;20033;-89
2023/10/09 17:52:37;;;;;;;14.45;4.18;;;17.70;93.90;;;;;;5024081;28;20553;-89
2023/10/09 17:55:06;;;;;;;17.90;3.85;;;17.70;93.80;;;;;;5021494;28;20120;-89
2023/10/09 17:57:39;;;;;;;10.40;3.90;;;17.70;93.80;;;;;;5017448;28;20032;-90
2023/10/09 18:00:16;;;;;;;22.08;4.53;;;17.70;93.80;;;;;;5023636;28;20025;-90
2023/10/09 18:02:51;;;;;;;17.50;4.57;;;17.70;93.80;;;;;;5008010;28;20064;-90
2023/10/09 18:05:19;;;;;;;22.77;4.13;;;17.70;93.80;;;;;;5005698;28;20026;-89
2023/10/09 18:07:45;;;;;;;17.25;4.07;;;17.60;94.10;;;;;;5021370;28;20037;-89
2023/10/09 18:10:16;;;;;;;13.77;4.30;;;17.70;93.70;;;;;;5010331;28;20021;-90
2023/10/09 18:12:42;;;;;;;13.68;4.35;;;17.70;93.70;;;;;;5024761;28;20036;-90
2023/10/09 18:15:12;;;;;;;15.40;4.50;;;17.70;93.70;;;;;;5023861;28;20022;-90
2023/10/09 18:17:40;;;;;;;13.02;3.95;;;17.70;93.70;;;;;;5023590;28;20055;-90
2023/10/09 18:20:10;;;;;;;24.30;4.13;;;17.70;93.70;;;;;;5024650;28;20561;-90
2023/10/09 18:22:36;;;;;;;16.73;4.78;;;17.60;93.70;;;;;;5025015;28;20040;-90
2023/10/09 18:25:04;;;;;;;25.00;4.18;;;17.70;93.70;;;;;;5015889;28;20026;-90
2023/10/09 18:27:30;;;;;;;24.63;5.15;;;17.70;93.70;;;;;;5028545;28;20039;-90